sensor_id;sensor_type;location;lat;lon;timestamp;pressure;altitude;pressure_sealevel;temperature;humidity
67740;BME280;54536;50.090;14.420;2023-04-02T00:01:54;98425.66;;;13.12;60.77
67740;BME280;54536;50.090;14.420;2023-04-02T00:04:21;98431.75;;;13.13;61.22
67740;BME280;54536;50.090;14.420;2023-04-02T00:07:24;98429.28;;;13.11;61.28
67740;BME280;54536;50.090;14.420;2023-04-02T00:09:56;98434.50;;;13.20;60.86
67740;BME280;54536;50.090;14.420;2023-04-02T00:12:23;98437.75;;;13.30;60.83
67740;BME280;54536;50.090;14.420;2023-04-02T00:14:53;98432.94;;;13.33;60.75
67740;BME280;54536;50.090;14.420;2023-04-02T00:17:24;98438.06;;;13.35;61.29
67740;BME280;54536;50.090;14.420;2023-04-02T00:19:59;98437.34;;;13.41;60.53
67740;BME280;54536;50.090;14.420;2023-04-02T00:22:30;98440.59;;;13.28;61.66
67740;BME280;54536;50.090;14.420;2023-04-02T00:25:01;98444.81;;;13.06;62.35
67740;BME280;54536;50.090;14.420;2023-04-02T00:27:30;98446.94;;;13.11;62.36
67740;BME280;54536;50.090;14.420;2023-04-02T00:29:57;98448.00;;;13.02;62.04
67740;BME280;54536;50.090;14.420;2023-04-02T00:32:36;98452.03;;;13.12;62.70
67740;BME280;54536;50.090;14.420;2023-04-02T00:35:03;98452.44;;;13.01;62.87
67740;BME280;54536;50.090;14.420;2023-04-02T00:37:38;98456.66;;;13.10;62.74
67740;BME280;54536;50.090;14.420;2023-04-02T00:40:27;98456.19;;;13.07;63.11
67740;BME280;54536;50.090;14.420;2023-04-02T00:42:57;98455.28;;;13.23;62.82
67740;BME280;54536;50.090;14.420;2023-04-02T00:45:28;98454.97;;;13.18;62.15
67740;BME280;54536;50.090;14.420;2023-04-02T00:47:58;98457.13;;;13.14;62.55
67740;BME280;54536;50.090;14.420;2023-04-02T00:52:58;98464.59;;;13.10;63.12
67740;BME280;54536;50.090;14.420;2023-04-02T00:55:35;98463.25;;;13.15;62.82
67740;BME280;54536;50.090;14.420;2023-04-02T01:00:49;98460.91;;;13.20;63.31
67740;BME280;54536;50.090;14.420;2023-04-02T01:05:59;98462.13;;;13.09;63.15
67740;BME280;54536;50.090;14.420;2023-04-02T01:16:57;98471.78;;;12.94;63.77
67740;BME280;54536;50.090;14.420;2023-04-02T01:22:29;98473.53;;;13.01;63.62
67740;BME280;54536;50.090;14.420;2023-04-02T01:25:01;98476.16;;;13.09;63.44
67740;BME280;54536;50.090;14.420;2023-04-02T01:27:53;98476.69;;;13.05;64.22
67740;BME280;54536;50.090;14.420;2023-04-02T01:30:22;98478.47;;;13.04;63.64
67740;BME280;54536;50.090;14.420;2023-04-02T01:32:52;98477.53;;;12.97;64.19
67740;BME280;54536;50.090;14.420;2023-04-02T01:35:20;98484.94;;;13.02;64.18
67740;BME280;54536;50.090;14.420;2023-04-02T01:37:49;98483.63;;;12.98;64.01
67740;BME280;54536;50.090;14.420;2023-04-02T01:40:32;98489.88;;;13.05;64.28
67740;BME280;54536;50.090;14.420;2023-04-02T01:45:45;98490.59;;;12.91;64.12
67740;BME280;54536;50.090;14.420;2023-04-02T01:48:22;98490.25;;;12.94;64.59
67740;BME280;54536;50.090;14.420;2023-04-02T01:50:53;98496.34;;;12.94;64.08
67740;BME280;54536;50.090;14.420;2023-04-02T01:53:23;98500.34;;;12.90;64.18
67740;BME280;54536;50.090;14.420;2023-04-02T01:55:59;98499.81;;;12.95;65.00
67740;BME280;54536;50.090;14.420;2023-04-02T01:58:30;98503.06;;;13.05;64.20
67740;BME280;54536;50.090;14.420;2023-04-02T02:01:03;98502.72;;;13.08;64.63
67740;BME280;54536;50.090;14.420;2023-04-02T02:03:33;98500.25;;;13.06;64.32
67740;BME280;54536;50.090;14.420;2023-04-02T02:06:02;98504.06;;;13.04;64.56
67740;BME280;54536;50.090;14.420;2023-04-02T02:11:21;98506.69;;;13.04;64.13
67740;BME280;54536;50.090;14.420;2023-04-02T02:13:54;98507.00;;;13.09;64.32
67740;BME280;54536;50.090;14.420;2023-04-02T02:16:21;98511.81;;;13.05;64.22
67740;BME280;54536;50.090;14.420;2023-04-02T02:18:56;98518.25;;;13.03;64.86
67740;BME280;54536;50.090;14.420;2023-04-02T02:21:41;98514.81;;;12.94;64.95
67740;BME280;54536;50.090;14.420;2023-04-02T02:24:27;98518.13;;;12.96;65.20
67740;BME280;54536;50.090;14.420;2023-04-02T02:29:39;98517.25;;;13.04;64.65
67740;BME280;54536;50.090;14.420;2023-04-02T02:32:14;98519.75;;;12.97;65.25
67740;BME280;54536;50.090;14.420;2023-04-02T02:34:55;98525.03;;;12.97;65.24
67740;BME280;54536;50.090;14.420;2023-04-02T02:37:29;98531.47;;;12.95;65.19
67740;BME280;54536;50.090;14.420;2023-04-02T02:40:02;98527.88;;;12.87;65.96
67740;BME280;54536;50.090;14.420;2023-04-02T02:42:38;98536.28;;;12.91;65.91
67740;BME280;54536;50.090;14.420;2023-04-02T02:45:16;98539.38;;;13.03;64.95
67740;BME280;54536;50.090;14.420;2023-04-02T02:47:45;98534.97;;;12.95;65.71
67740;BME280;54536;50.090;14.420;2023-04-02T02:50:24;98532.94;;;12.97;65.21
67740;BME280;54536;50.090;14.420;2023-04-02T02:52:55;98543.81;;;13.02;65.23
67740;BME280;54536;50.090;14.420;2023-04-02T02:55:42;98541.34;;;13.01;65.19
67740;BME280;54536;50.090;14.420;2023-04-02T02:58:27;98548.16;;;12.95;65.51
67740;BME280;54536;50.090;14.420;2023-04-02T03:00:58;98549.59;;;12.98;66.09
67740;BME280;54536;50.090;14.420;2023-04-02T03:03:30;98556.41;;;12.92;65.65
67740;BME280;54536;50.090;14.420;2023-04-02T03:06:05;98549.44;;;12.99;65.83
67740;BME280;54536;50.090;14.420;2023-04-02T03:12:06;98561.97;;;12.97;66.25
67740;BME280;54536;50.090;14.420;2023-04-02T03:17:53;98573.00;;;13.01;66.52
67740;BME280;54536;50.090;14.420;2023-04-02T03:23:22;98576.53;;;12.93;66.72
67740;BME280;54536;50.090;14.420;2023-04-02T03:28:34;98581.28;;;12.98;66.03
67740;BME280;54536;50.090;14.420;2023-04-02T03:31:40;98583.91;;;12.98;65.55
67740;BME280;54536;50.090;14.420;2023-04-02T03:34:35;98588.72;;;12.94;65.51
67740;BME280;54536;50.090;14.420;2023-04-02T03:37:21;98590.72;;;12.92;65.21
67740;BME280;54536;50.090;14.420;2023-04-02T03:40:08;98596.50;;;12.87;65.75
67740;BME280;54536;50.090;14.420;2023-04-02T03:42:51;98608.03;;;12.86;65.11
67740;BME280;54536;50.090;14.420;2023-04-02T03:45:34;98597.97;;;12.90;65.53
67740;BME280;54536;50.090;14.420;2023-04-02T03:48:17;98610.81;;;12.93;65.34
67740;BME280;54536;50.090;14.420;2023-04-02T03:50:49;98607.72;;;12.89;65.34
67740;BME280;54536;50.090;14.420;2023-04-02T03:53:17;98625.69;;;12.86;64.67
67740;BME280;54536;50.090;14.420;2023-04-02T03:55:55;98628.00;;;12.89;65.72
67740;BME280;54536;50.090;14.420;2023-04-02T03:58:39;98624.88;;;12.77;65.48
67740;BME280;54536;50.090;14.420;2023-04-02T04:01:23;98633.31;;;12.64;65.92
67740;BME280;54536;50.090;14.420;2023-04-02T04:04:06;98641.75;;;12.60;66.43
67740;BME280;54536;50.090;14.420;2023-04-02T04:06:40;98642.06;;;12.65;65.51
67740;BME280;54536;50.090;14.420;2023-04-02T04:09:36;98653.41;;;12.74;66.06
67740;BME280;54536;50.090;14.420;2023-04-02T04:14:58;98657.56;;;12.52;65.31
67740;BME280;54536;50.090;14.420;2023-04-02T04:17:47;98669.97;;;12.27;64.61
67740;BME280;54536;50.090;14.420;2023-04-02T04:20:26;98676.06;;;12.27;65.13
67740;BME280;54536;50.090;14.420;2023-04-02T04:23:07;98687.75;;;12.41;64.62
67740;BME280;54536;50.090;14.420;2023-04-02T04:25:35;98694.19;;;12.30;64.45
67740;BME280;54536;50.090;14.420;2023-04-02T04:31:12;98704.38;;;12.17;64.49
67740;BME280;54536;50.090;14.420;2023-04-02T04:33:47;98708.47;;;12.03;63.89
67740;BME280;54536;50.090;14.420;2023-04-02T04:36:32;98710.97;;;12.05;63.90
67740;BME280;54536;50.090;14.420;2023-04-02T04:39:12;98725.63;;;12.07;63.65
67740;BME280;54536;50.090;14.420;2023-04-02T04:41:56;98732.47;;;11.84;62.41
67740;BME280;54536;50.090;14.420;2023-04-02T04:44:44;98740.91;;;11.87;62.74
67740;BME280;54536;50.090;14.420;2023-04-02T04:47:38;98738.75;;;11.91;62.42
67740;BME280;54536;50.090;14.420;2023-04-02T04:50:07;98754.31;;;11.76;62.40
67740;BME280;54536;50.090;14.420;2023-04-02T04:52:39;98758.09;;;11.73;62.76
67740;BME280;54536;50.090;14.420;2023-04-02T04:55:43;98761.88;;;11.71;62.78
67740;BME280;54536;50.090;14.420;2023-04-02T04:58:21;98765.47;;;11.70;62.26
67740;BME280;54536;50.090;14.420;2023-04-02T05:14:50;98802.44;;;11.52;61.57
67740;BME280;54536;50.090;14.420;2023-04-02T05:17:32;98808.34;;;11.46;61.69
67740;BME280;54536;50.090;14.420;2023-04-02T05:20:24;98820.00;;;11.43;62.73
67740;BME280;54536;50.090;14.420;2023-04-02T05:23:14;98823.44;;;11.44;62.20
67740;BME280;54536;50.090;14.420;2023-04-02T05:26:15;98835.03;;;11.25;62.57
67740;BME280;54536;50.090;14.420;2023-04-02T05:29:21;98839.00;;;11.29;62.32
67740;BME280;54536;50.090;14.420;2023-04-02T05:32:05;98849.03;;;11.25;62.03
67740;BME280;54536;50.090;14.420;2023-04-02T05:34:37;98852.34;;;11.10;61.98
67740;BME280;54536;50.090;14.420;2023-04-02T05:37:14;98861.88;;;11.11;61.47
67740;BME280;54536;50.090;14.420;2023-04-02T05:39:44;98862.88;;;10.92;61.12
67740;BME280;54536;50.090;14.420;2023-04-02T05:42:21;98869.00;;;10.92;62.35
67740;BME280;54536;50.090;14.420;2023-04-02T05:45:05;98870.16;;;10.98;61.75
67740;BME280;54536;50.090;14.420;2023-04-02T05:47:34;98880.47;;;10.91;61.59
67740;BME280;54536;50.090;14.420;2023-04-02T05:52:45;98896.56;;;10.88;61.55
67740;BME280;54536;50.090;14.420;2023-04-02T06:00:24;98909.28;;;10.93;59.93
67740;BME280;54536;50.090;14.420;2023-04-02T06:03:00;98909.19;;;10.85;59.64
67740;BME280;54536;50.090;14.420;2023-04-02T06:05:38;98916.13;;;10.86;59.75
67740;BME280;54536;50.090;14.420;2023-04-02T06:08:12;98923.53;;;10.90;59.40
67740;BME280;54536;50.090;14.420;2023-04-02T06:11:00;98925.13;;;10.83;59.61
67740;BME280;54536;50.090;14.420;2023-04-02T06:13:28;98927.94;;;10.72;58.46
67740;BME280;54536;50.090;14.420;2023-04-02T06:15:55;98940.16;;;10.73;58.23
67740;BME280;54536;50.090;14.420;2023-04-02T06:18:29;98945.47;;;10.63;59.04
67740;BME280;54536;50.090;14.420;2023-04-02T06:20:58;98951.59;;;10.54;59.19
67740;BME280;54536;50.090;14.420;2023-04-02T06:28:53;98963.91;;;10.53;59.69
67740;BME280;54536;50.090;14.420;2023-04-02T06:31:27;98969.19;;;10.53;60.23
67740;BME280;54536;50.090;14.420;2023-04-02T06:33:58;98972.81;;;10.43;58.83
67740;BME280;54536;50.090;14.420;2023-04-02T06:36:26;98983.78;;;10.38;58.76
67740;BME280;54536;50.090;14.420;2023-04-02T06:38:56;98988.19;;;10.38;59.62
67740;BME280;54536;50.090;14.420;2023-04-02T06:41:28;98993.88;;;10.33;60.48
67740;BME280;54536;50.090;14.420;2023-04-02T06:44:07;99002.75;;;10.22;60.47
67740;BME280;54536;50.090;14.420;2023-04-02T06:46:47;99003.94;;;10.47;60.59
67740;BME280;54536;50.090;14.420;2023-04-02T06:49:24;99009.50;;;10.35;60.92
67740;BME280;54536;50.090;14.420;2023-04-02T06:51:59;99017.00;;;10.29;60.09
67740;BME280;54536;50.090;14.420;2023-04-02T06:54:26;99020.56;;;10.38;59.98
67740;BME280;54536;50.090;14.420;2023-04-02T06:56:54;99026.75;;;10.47;59.56
67740;BME280;54536;50.090;14.420;2023-04-02T06:59:24;99038.34;;;10.54;59.12
67740;BME280;54536;50.090;14.420;2023-04-02T07:02:03;99036.03;;;10.41;59.44
67740;BME280;54536;50.090;14.420;2023-04-02T07:04:32;99047.41;;;10.32;58.17
67740;BME280;54536;50.090;14.420;2023-04-02T07:06:58;99052.13;;;10.19;58.95
67740;BME280;54536;50.090;14.420;2023-04-02T07:09:24;99063.06;;;10.24;59.07
67740;BME280;54536;50.090;14.420;2023-04-02T07:11:51;99062.81;;;10.07;58.43
67740;BME280;54536;50.090;14.420;2023-04-02T07:14:17;99069.41;;;10.21;58.34
67740;BME280;54536;50.090;14.420;2023-04-02T07:16:43;99075.34;;;10.23;58.68
67740;BME280;54536;50.090;14.420;2023-04-02T07:19:21;99082.28;;;10.24;58.49
67740;BME280;54536;50.090;14.420;2023-04-02T07:21:47;99084.50;;;10.29;58.88
67740;BME280;54536;50.090;14.420;2023-04-02T07:24:13;99086.44;;;10.27;59.33
67740;BME280;54536;50.090;14.420;2023-04-02T07:26:41;99097.06;;;10.35;57.49
67740;BME280;54536;50.090;14.420;2023-04-02T07:29:10;99100.53;;;10.26;57.46
67740;BME280;54536;50.090;14.420;2023-04-02T07:31:38;99105.13;;;10.14;57.02
67740;BME280;54536;50.090;14.420;2023-04-02T07:34:06;99111.19;;;10.24;56.70
67740;BME280;54536;50.090;14.420;2023-04-02T07:36:33;99110.34;;;10.24;56.25
67740;BME280;54536;50.090;14.420;2023-04-02T07:39:00;99120.16;;;10.22;56.24
67740;BME280;54536;50.090;14.420;2023-04-02T07:41:27;99125.31;;;10.04;56.71
67740;BME280;54536;50.090;14.420;2023-04-02T07:43:52;99134.41;;;10.00;56.28
67740;BME280;54536;50.090;14.420;2023-04-02T07:46:19;99138.72;;;10.01;56.61
67740;BME280;54536;50.090;14.420;2023-04-02T07:48:46;99147.69;;;9.98;56.00
67740;BME280;54536;50.090;14.420;2023-04-02T07:51:16;99159.47;;;10.14;57.27
67740;BME280;54536;50.090;14.420;2023-04-02T07:53:43;99164.84;;;10.22;56.11
67740;BME280;54536;50.090;14.420;2023-04-02T07:56:13;99171.75;;;10.13;55.57
67740;BME280;54536;50.090;14.420;2023-04-02T07:58:40;99168.44;;;10.21;54.35
67740;BME280;54536;50.090;14.420;2023-04-02T08:01:18;99177.41;;;10.18;56.00
67740;BME280;54536;50.090;14.420;2023-04-02T08:03:46;99180.47;;;10.14;55.04
67740;BME280;54536;50.090;14.420;2023-04-02T08:06:12;99176.16;;;10.13;55.23
67740;BME280;54536;50.090;14.420;2023-04-02T08:08:39;99182.13;;;10.05;53.82
67740;BME280;54536;50.090;14.420;2023-04-02T08:11:05;99182.13;;;10.15;53.95
67740;BME280;54536;50.090;14.420;2023-04-02T08:13:31;99183.41;;;10.30;53.83
67740;BME280;54536;50.090;14.420;2023-04-02T08:15:59;99192.50;;;10.26;54.66
67740;BME280;54536;50.090;14.420;2023-04-02T08:18:28;99207.19;;;10.38;54.02
67740;BME280;54536;50.090;14.420;2023-04-02T08:20:54;99211.59;;;10.38;53.91
67740;BME280;54536;50.090;14.420;2023-04-02T08:23:22;99207.19;;;10.28;54.24
67740;BME280;54536;50.090;14.420;2023-04-02T08:25:49;99212.72;;;10.35;52.69
67740;BME280;54536;50.090;14.420;2023-04-02T08:28:15;99209.09;;;10.55;52.62
67740;BME280;54536;50.090;14.420;2023-04-02T08:30:41;99222.22;;;10.55;53.00
67740;BME280;54536;50.090;14.420;2023-04-02T08:33:08;99221.66;;;10.62;52.80
67740;BME280;54536;50.090;14.420;2023-04-02T08:35:34;99228.03;;;10.49;52.80
67740;BME280;54536;50.090;14.420;2023-04-02T08:38:00;99228.63;;;10.53;52.07
67740;BME280;54536;50.090;14.420;2023-04-02T08:48:16;99252.94;;;10.55;52.70
67740;BME280;54536;50.090;14.420;2023-04-02T08:50:43;99258.75;;;10.59;51.63
67740;BME280;54536;50.090;14.420;2023-04-02T08:53:22;99266.38;;;10.42;51.77
67740;BME280;54536;50.090;14.420;2023-04-02T08:56:01;99264.16;;;10.57;52.37
67740;BME280;54536;50.090;14.420;2023-04-02T09:03:57;99279.78;;;10.88;50.70
67740;BME280;54536;50.090;14.420;2023-04-02T09:06:24;99291.91;;;11.08;50.89
67740;BME280;54536;50.090;14.420;2023-04-02T09:08:54;99284.28;;;11.05;50.14
67740;BME280;54536;50.090;14.420;2023-04-02T09:11:34;99283.19;;;11.08;49.72
67740;BME280;54536;50.090;14.420;2023-04-02T09:14:23;99286.84;;;11.34;50.02
67740;BME280;54536;50.090;14.420;2023-04-02T09:17:00;99287.56;;;11.64;49.36
67740;BME280;54536;50.090;14.420;2023-04-02T09:19:37;99292.44;;;11.59;48.92
67740;BME280;54536;50.090;14.420;2023-04-02T09:24:41;99304.72;;;11.40;48.81
67740;BME280;54536;50.090;14.420;2023-04-02T09:27:18;99317.75;;;11.42;48.91
67740;BME280;54536;50.090;14.420;2023-04-02T09:35:10;99334.47;;;11.51;48.95
67740;BME280;54536;50.090;14.420;2023-04-02T09:37:39;99329.63;;;11.46;48.95
67740;BME280;54536;50.090;14.420;2023-04-02T09:42:42;99348.44;;;11.04;49.70
67740;BME280;54536;50.090;14.420;2023-04-02T09:47:43;99354.22;;;11.27;47.75
67740;BME280;54536;50.090;14.420;2023-04-02T09:50:14;99358.53;;;11.18;47.00
67740;BME280;54536;50.090;14.420;2023-04-02T09:52:50;99365.91;;;10.95;48.35
67740;BME280;54536;50.090;14.420;2023-04-02T09:55:28;99375.72;;;10.84;48.76
67740;BME280;54536;50.090;14.420;2023-04-02T09:58:14;99384.97;;;10.78;48.77
67740;BME280;54536;50.090;14.420;2023-04-02T10:00:52;99398.00;;;10.60;50.05
67740;BME280;54536;50.090;14.420;2023-04-02T10:03:25;99400.34;;;10.63;50.17
67740;BME280;54536;50.090;14.420;2023-04-02T10:06:14;99406.53;;;10.52;49.89
67740;BME280;54536;50.090;14.420;2023-04-02T10:08:43;99405.00;;;10.40;49.36
67740;BME280;54536;50.090;14.420;2023-04-02T10:14:02;99414.38;;;10.33;49.92
67740;BME280;54536;50.090;14.420;2023-04-02T10:16:42;99423.72;;;10.47;48.19
67740;BME280;54536;50.090;14.420;2023-04-02T10:21:49;99426.47;;;10.55;48.44
67740;BME280;54536;50.090;14.420;2023-04-02T10:24:16;99437.28;;;10.62;48.05
67740;BME280;54536;50.090;14.420;2023-04-02T10:29:55;99445.38;;;10.39;49.03
67740;BME280;54536;50.090;14.420;2023-04-02T10:32:47;99444.75;;;10.57;48.38
67740;BME280;54536;50.090;14.420;2023-04-02T10:38:42;99447.13;;;10.60;48.31
67740;BME280;54536;50.090;14.420;2023-04-02T10:44:35;99454.22;;;10.98;47.79
67740;BME280;54536;50.090;14.420;2023-04-02T10:47:40;99463.59;;;10.71;48.17
67740;BME280;54536;50.090;14.420;2023-04-02T10:50:24;99474.00;;;10.73;47.83
67740;BME280;54536;50.090;14.420;2023-04-02T10:52:56;99464.31;;;10.73;47.37
67740;BME280;54536;50.090;14.420;2023-04-02T10:55:34;99464.88;;;10.77;48.12
67740;BME280;54536;50.090;14.420;2023-04-02T10:58:22;99469.97;;;10.78;47.08
67740;BME280;54536;50.090;14.420;2023-04-02T11:00:55;99477.72;;;10.70;46.84
67740;BME280;54536;50.090;14.420;2023-04-02T11:03:44;99485.75;;;10.69;48.13
67740;BME280;54536;50.090;14.420;2023-04-02T11:06:23;99494.59;;;10.68;48.18
67740;BME280;54536;50.090;14.420;2023-04-02T11:08:59;99492.94;;;10.67;49.17
67740;BME280;54536;50.090;14.420;2023-04-02T11:11:41;99495.69;;;10.65;48.97
67740;BME280;54536;50.090;14.420;2023-04-02T11:14:16;99500.28;;;10.63;48.18
67740;BME280;54536;50.090;14.420;2023-04-02T11:16:48;99502.88;;;10.53;48.34
67740;BME280;54536;50.090;14.420;2023-04-02T11:21:49;99510.22;;;10.60;50.55
67740;BME280;54536;50.090;14.420;2023-04-02T11:26:51;99513.06;;;10.37;49.53
67740;BME280;54536;50.090;14.420;2023-04-02T11:29:23;99520.91;;;10.27;49.38
67740;BME280;54536;50.090;14.420;2023-04-02T11:42:39;99537.72;;;10.25;48.78
67740;BME280;54536;50.090;14.420;2023-04-02T11:50:34;99555.91;;;10.17;48.24
67740;BME280;54536;50.090;14.420;2023-04-02T11:55:37;99567.28;;;10.17;48.18
67740;BME280;54536;50.090;14.420;2023-04-02T11:58:36;99575.72;;;10.42;47.34
67740;BME280;54536;50.090;14.420;2023-04-02T12:10:19;99591.25;;;10.24;49.06
67740;BME280;54536;50.090;14.420;2023-04-02T12:12:47;99594.59;;;10.26;48.49
67740;BME280;54536;50.090;14.420;2023-04-02T12:18:21;99606.66;;;10.28;49.36
67740;BME280;54536;50.090;14.420;2023-04-02T12:20:54;99603.53;;;10.23;49.49
67740;BME280;54536;50.090;14.420;2023-04-02T12:23:27;99611.88;;;10.07;49.03
67740;BME280;54536;50.090;14.420;2023-04-02T12:25:59;99620.78;;;10.16;49.50
67740;BME280;54536;50.090;14.420;2023-04-02T12:28:30;99622.78;;;10.24;49.58
67740;BME280;54536;50.090;14.420;2023-04-02T12:33:40;99623.81;;;10.32;49.13
67740;BME280;54536;50.090;14.420;2023-04-02T12:38:51;99635.47;;;10.19;48.50
67740;BME280;54536;50.090;14.420;2023-04-02T12:41:29;99639.09;;;10.06;49.07
67740;BME280;54536;50.090;14.420;2023-04-02T12:44:10;99638.66;;;10.22;49.10
67740;BME280;54536;50.090;14.420;2023-04-02T12:46:41;99650.31;;;10.08;49.60
67740;BME280;54536;50.090;14.420;2023-04-02T12:51:45;99657.72;;;9.82;50.01
67740;BME280;54536;50.090;14.420;2023-04-02T12:54:16;99657.84;;;9.81;50.30
67740;BME280;54536;50.090;14.420;2023-04-02T12:56:43;99659.63;;;9.80;49.28
67740;BME280;54536;50.090;14.420;2023-04-02T12:59:30;99663.56;;;9.86;50.56
67740;BME280;54536;50.090;14.420;2023-04-02T13:02:23;99656.81;;;9.72;49.69
67740;BME280;54536;50.090;14.420;2023-04-02T13:04:55;99671.00;;;9.81;49.46
67740;BME280;54536;50.090;14.420;2023-04-02T13:07:24;99673.81;;;9.89;49.55
67740;BME280;54536;50.090;14.420;2023-04-02T13:09:58;99671.69;;;9.83;49.80
67740;BME280;54536;50.090;14.420;2023-04-02T13:12:33;99678.97;;;9.79;50.84
67740;BME280;54536;50.090;14.420;2023-04-02T13:15:07;99677.91;;;9.82;49.59
67740;BME280;54536;50.090;14.420;2023-04-02T13:17:39;99683.16;;;9.82;50.02
67740;BME280;54536;50.090;14.420;2023-04-02T13:20:29;99682.59;;;9.67;50.19
67740;BME280;54536;50.090;14.420;2023-04-02T13:22:58;99686.66;;;9.71;50.11
67740;BME280;54536;50.090;14.420;2023-04-02T13:25:30;99687.69;;;9.80;51.48
67740;BME280;54536;50.090;14.420;2023-04-02T13:27:57;99689.63;;;9.78;49.55
67740;BME280;54536;50.090;14.420;2023-04-02T13:30:26;99690.09;;;9.72;49.78
67740;BME280;54536;50.090;14.420;2023-04-02T13:32:53;99685.19;;;9.78;50.07
67740;BME280;54536;50.090;14.420;2023-04-02T13:35:20;99689.44;;;9.91;50.08
67740;BME280;54536;50.090;14.420;2023-04-02T13:37:47;99692.38;;;10.08;49.09
67740;BME280;54536;50.090;14.420;2023-04-02T13:40:16;99701.06;;;10.09;48.59
67740;BME280;54536;50.090;14.420;2023-04-02T13:42:45;99697.69;;;9.97;49.13
67740;BME280;54536;50.090;14.420;2023-04-02T13:45:35;99712.72;;;9.84;48.38
67740;BME280;54536;50.090;14.420;2023-04-02T13:48:03;99716.22;;;9.84;49.67
67740;BME280;54536;50.090;14.420;2023-04-02T13:50:33;99713.25;;;9.78;49.29
67740;BME280;54536;50.090;14.420;2023-04-02T13:53:05;99729.34;;;9.84;49.38
67740;BME280;54536;50.090;14.420;2023-04-02T13:55:37;99723.50;;;9.81;47.62
67740;BME280;54536;50.090;14.420;2023-04-02T13:58:05;99725.88;;;9.84;48.49
67740;BME280;54536;50.090;14.420;2023-04-02T14:00:34;99732.13;;;9.72;48.41
67740;BME280;54536;50.090;14.420;2023-04-02T14:03:11;99730.69;;;9.68;48.49
67740;BME280;54536;50.090;14.420;2023-04-02T14:06:12;99733.88;;;9.82;49.14
67740;BME280;54536;50.090;14.420;2023-04-02T14:25:39;99759.56;;;9.68;48.82
67740;BME280;54536;50.090;14.420;2023-04-02T14:36:49;99776.19;;;9.68;48.24
67740;BME280;54536;50.090;14.420;2023-04-02T14:39:35;99780.22;;;9.72;48.29
67740;BME280;54536;50.090;14.420;2023-04-02T14:42:14;99779.88;;;9.66;48.52
67740;BME280;54536;50.090;14.420;2023-04-02T14:44:50;99777.94;;;9.68;50.44
67740;BME280;54536;50.090;14.420;2023-04-02T14:47:28;99783.59;;;9.52;49.77
67740;BME280;54536;50.090;14.420;2023-04-02T14:53:06;99790.00;;;9.48;49.86
67740;BME280;54536;50.090;14.420;2023-04-02T14:55:38;99791.81;;;9.36;50.03
67740;BME280;54536;50.090;14.420;2023-04-02T14:58:18;99797.88;;;9.25;48.99
67740;BME280;54536;50.090;14.420;2023-04-02T15:01:04;99797.53;;;9.41;50.37
67740;BME280;54536;50.090;14.420;2023-04-02T15:03:45;99801.94;;;9.41;48.34
67740;BME280;54536;50.090;14.420;2023-04-02T15:06:25;99806.97;;;9.44;50.22
67740;BME280;54536;50.090;14.420;2023-04-02T15:09:08;99815.91;;;9.52;48.40
67740;BME280;54536;50.090;14.420;2023-04-02T15:12:00;99810.28;;;9.57;48.92
67740;BME280;54536;50.090;14.420;2023-04-02T15:14:44;99810.16;;;9.47;48.66
67740;BME280;54536;50.090;14.420;2023-04-02T15:17:12;99815.41;;;9.47;48.93
67740;BME280;54536;50.090;14.420;2023-04-02T15:19:38;99821.16;;;9.41;48.69
67740;BME280;54536;50.090;14.420;2023-04-02T15:25:35;99822.09;;;9.40;49.28
67740;BME280;54536;50.090;14.420;2023-04-02T15:28:45;99822.81;;;9.31;49.63
67740;BME280;54536;50.090;14.420;2023-04-02T15:31:13;99837.00;;;9.17;50.04
67740;BME280;54536;50.090;14.420;2023-04-02T15:33:47;99843.66;;;9.21;50.80
67740;BME280;54536;50.090;14.420;2023-04-02T15:38:48;99852.81;;;9.04;49.66
67740;BME280;54536;50.090;14.420;2023-04-02T15:41:40;99851.59;;;8.97;49.26
67740;BME280;54536;50.090;14.420;2023-04-02T15:44:14;99862.56;;;8.91;50.16
67740;BME280;54536;50.090;14.420;2023-04-02T15:46:56;99865.44;;;8.99;49.53
67740;BME280;54536;50.090;14.420;2023-04-02T15:52:17;99864.13;;;8.94;48.79
67740;BME280;54536;50.090;14.420;2023-04-02T15:55:21;99865.94;;;9.04;47.59
67740;BME280;54536;50.090;14.420;2023-04-02T15:58:32;99862.84;;;9.10;48.58
67740;BME280;54536;50.090;14.420;2023-04-02T16:06:29;99878.31;;;9.02;48.30
67740;BME280;54536;50.090;14.420;2023-04-02T16:11:30;99893.50;;;9.10;48.01
67740;BME280;54536;50.090;14.420;2023-04-02T16:14:23;99885.69;;;8.97;48.35
67740;BME280;54536;50.090;14.420;2023-04-02T16:16:49;99895.53;;;9.06;48.07
67740;BME280;54536;50.090;14.420;2023-04-02T16:19:43;99886.28;;;8.89;47.57
67740;BME280;54536;50.090;14.420;2023-04-02T16:22:27;99890.22;;;8.95;48.62
67740;BME280;54536;50.090;14.420;2023-04-02T16:25:12;99899.00;;;8.83;47.47
67740;BME280;54536;50.090;14.420;2023-04-02T16:27:45;99903.25;;;9.08;48.71
67740;BME280;54536;50.090;14.420;2023-04-02T16:36:13;99904.91;;;9.09;48.33
67740;BME280;54536;50.090;14.420;2023-04-02T16:41:52;99919.28;;;9.16;48.18
67740;BME280;54536;50.090;14.420;2023-04-02T16:52:53;99930.00;;;9.13;49.09
67740;BME280;54536;50.090;14.420;2023-04-02T16:55:40;99930.22;;;9.10;48.39
67740;BME280;54536;50.090;14.420;2023-04-02T16:58:33;99937.03;;;8.88;48.20
67740;BME280;54536;50.090;14.420;2023-04-02T17:04:08;99941.25;;;9.02;48.94
67740;BME280;54536;50.090;14.420;2023-04-02T17:06:42;99945.19;;;8.97;49.15
67740;BME280;54536;50.090;14.420;2023-04-02T17:09:35;99944.69;;;8.91;49.40
67740;BME280;54536;50.090;14.420;2023-04-02T17:12:21;99946.25;;;8.94;49.46
67740;BME280;54536;50.090;14.420;2023-04-02T17:15:00;99950.22;;;9.00;48.79
67740;BME280;54536;50.090;14.420;2023-04-02T17:17:29;99956.63;;;8.96;49.85
67740;BME280;54536;50.090;14.420;2023-04-02T17:19:59;99959.97;;;8.98;49.67